Time;durP1;ratioP1;P1;durP2;ratioP2;P2;SDS_P1;SDS_P2;PMS_P1;PMS_P2;Temp;Humidity;BMP_temperature;BMP_pressure;BME280_temperature;BME280_humidity;BME280_pressure;Samples;Min_cycle;Max_cycle;Signal;HPM_P1;HPM_P2
2022/02/27 00:00:09;;;;;;;;;;;;;;;;;;5089425;28;20262;-54
2022/02/27 00:02:36;;;;;;;;;;;;;;;;;;5088272;28;19915;-56
2022/02/27 00:05:02;;;;;;;;;;;;;;;;;;5086745;28;19923;-53
2022/02/27 00:07:28;;;;;;;;;;;;;;;;;;5089831;28;19908;-52
2022/02/27 00:09:55;;;;;;;;;;;;;;;;;;5090138;28;19915;-58
2022/02/27 00:12:21;;;;;;;;;;;;;;;;;;5089135;28;19931;-53
2022/02/27 00:14:48;;;;;;;;;;;;;;;;;;5088194;28;19915;-58
2022/02/27 00:17:14;;;;;;;;;;;;;;;;;;5089297;28;19954;-49
2022/02/27 00:19:41;;;;;;;;;;;;;;;;;;5088763;28;19924;-54
2022/02/27 00:22:08;;;;;;;;;;;;;;;;;;5089708;28;19916;-54
2022/02/27 00:24:34;;;;;;;;;;;;;;;;;;5087968;28;19908;-53
2022/02/27 00:27:01;;;;;;;;;;;;;;;;;;5087405;28;19908;-55
2022/02/27 00:29:27;;;;;;;;;;;;;;;;;;5089010;28;20342;-57
2022/02/27 00:31:54;;;;;;;;;;;;;;;;;;5090155;28;19998;-54
2022/02/27 00:34:21;;;;;;;;;;;;;;;;;;5089584;28;20485;-57
2022/02/27 00:36:50;;;;;;;;;;;;;;;;;;5086899;28;19908;-53
2022/02/27 00:39:18;;;;;;;;;;;;;;;;;;5086471;28;19992;-56
2022/02/27 00:41:44;;;;;;;;;;;;;;;;;;5090805;28;19978;-59
2022/02/27 00:44:11;;;;;;;;;;;;;;;;;;5089317;28;19923;-53
2022/02/27 00:46:37;;;;;;;;;;;;;;;;;;5085616;28;19908;-56
2022/02/27 00:49:04;;;;;;;;;;;;;;;;;;5089368;28;19909;-55
2022/02/27 00:51:32;;;;;;;;;;;;;;;;;;5088909;28;19912;-50
2022/02/27 00:53:58;;;;;;;;;;;;;;;;;;5089427;28;19928;-56
2022/02/27 00:56:24;;;;;;;;;;;;;;;;;;5085256;28;19915;-55
2022/02/27 00:58:51;;;;;;;;;;;;;;;;;;5092070;28;19920;-56
2022/02/27 01:01:18;;;;;;;;;;;;;;;;;;5093319;28;19923;-55
2022/02/27 01:03:44;;;;;;;;;;;;;;;;;;5092556;28;19915;-52
2022/02/27 01:06:11;;;;;;;;;;;;;;;;;;5090395;28;20230;-56
2022/02/27 01:08:37;;;;;;;;;;;;;;;;;;5092762;28;19923;-57
2022/02/27 01:11:04;;;;;;;;;;;;;;;;;;5092741;28;19991;-51
2022/02/27 01:13:30;;;;;;;;;;;;;;;;;;5092161;28;20258;-53
2022/02/27 01:15:57;;;;;;;;;;;;;;;;;;5090280;28;19908;-55
2022/02/27 01:18:23;;;;;;;;;;;;;;;;;;5092514;28;20408;-53
2022/02/27 01:20:50;;;;;;;;;;;;;;;;;;5093155;28;19965;-51
2022/02/27 01:23:16;;;;;;;;;;;;;;;;;;5092450;28;19942;-51
2022/02/27 01:25:43;;;;;;;;;;;;;;;;;;5089556;28;19955;-51
2022/02/27 01:28:09;;;;;;;;;;;;;;;;;;5092819;28;19922;-50
2022/02/27 01:30:36;;;;;;;;;;;;;;;;;;5091736;28;19994;-49
2022/02/27 01:33:02;;;;;;;;;;;;;;;;;;5092727;28;20707;-56
2022/02/27 01:35:29;;;;;;;;;;;;;;;;;;5089810;28;19969;-56
2022/02/27 01:37:55;;;;;;;;;;;;;;;;;;5092640;28;19912;-49
2022/02/27 01:40:22;;;;;;;;;;;;;;;;;;5091287;28;19916;-54
2022/02/27 01:42:48;;;;;;;;;;;;;;;;;;5093448;28;19908;-53
2022/02/27 01:45:15;;;;;;;;;;;;;;;;;;5089664;28;19915;-53
2022/02/27 01:47:41;;;;;;;;;;;;;;;;;;5092569;28;20286;-50
2022/02/27 01:50:08;;;;;;;;;;;;;;;;;;5092046;28;19908;-50
2022/02/27 01:52:35;;;;;;;;;;;;;;;;;;5092253;28;19908;-52
2022/02/27 01:55:01;;;;;;;;;;;;;;;;;;5090288;28;20271;-54
2022/02/27 01:57:28;;;;;;;;;;;;;;;;;;5091013;28;19999;-50
2022/02/27 01:59:54;;;;;;;;;;;;;;;;;;5092037;28;20350;-53
2022/02/27 02:02:21;;;;;;;;;;;;;;;;;;5092791;28;20001;-63
2022/02/27 02:04:47;;;;;;;;;;;;;;;;;;5091241;28;19915;-61
2022/02/27 02:07:14;;;;;;;;;;;;;;;;;;5089806;28;19931;-62
2022/02/27 02:09:40;;;;;;;;;;;;;;;;;;5091746;28;19912;-62
2022/02/27 02:12:06;;;;;;;;;;;;;;;;;;5093061;28;19999;-64
2022/02/27 02:14:33;;;;;;;;;;;;;;;;;;5091677;28;19943;-63
2022/02/27 02:16:59;;;;;;;;;;;;;;;;;;5089271;28;19909;-61
2022/02/27 02:19:26;;;;;;;;;;;;;;;;;;5092421;28;19970;-62
2022/02/27 02:21:52;;;;;;;;;;;;;;;;;;5092226;28;19954;-61
2022/02/27 02:24:19;;;;;;;;;;;;;;;;;;5091450;28;19931;-63
2022/02/27 02:26:45;;;;;;;;;;;;;;;;;;5094370;28;19908;-62
2022/02/27 02:29:12;;;;;;;;;;;;;;;;;;5094545;28;19908;-60
2022/02/27 02:31:39;;;;;;;;;;;;;;;;;;5111570;28;19916;-62
2022/02/27 02:34:05;;;;;;;;;;;;;;;;;;5114361;28;20354;-60
2022/02/27 02:36:31;;;;;;;;;;;;;;;;;;5114898;28;19930;-62
2022/02/27 02:38:58;;;;;;;;;;;;;;;;;;5114685;28;19927;-62
2022/02/27 02:41:24;;;;;;;;;;;;;;;;;;5114584;28;20312;-65
2022/02/27 02:43:51;;;;;;;;;;;;;;;;;;5104989;28;19912;-56
2022/02/27 02:46:17;;;;;;;;;;;;;;;;;;5093878;28;19915;-59
2022/02/27 02:48:44;;;;;;;;;;;;;;;;;;5093561;28;19916;-62
2022/02/27 02:51:10;;;;;;;;;;;;;;;;;;5092698;28;19908;-59
2022/02/27 02:53:37;;;;;;;;;;;;;;;;;;5092496;28;19982;-60
2022/02/27 02:56:05;;;;;;;;;;;;;;;;;;5093569;28;19908;-59
2022/02/27 02:58:32;;;;;;;;;;;;;;;;;;5092554;28;20361;-61
2022/02/27 03:00:58;;;;;;;;;;;;;;;;;;5093571;28;19919;-58
2022/02/27 03:03:25;;;;;;;;;;;;;;;;;;5093670;28;20307;-59
2022/02/27 03:05:51;;;;;;;;;;;;;;;;;;5092765;28;20392;-61
2022/02/27 03:08:18;;;;;;;;;;;;;;;;;;5093403;28;19915;-60
2022/02/27 03:10:44;;;;;;;;;;;;;;;;;;5093851;28;19912;-61
2022/02/27 03:13:10;;;;;;;;;;;;;;;;;;5093360;28;19908;-60
2022/02/27 03:15:37;;;;;;;;;;;;;;;;;;5093469;28;19931;-61
2022/02/27 03:18:04;;;;;;;;;;;;;;;;;;5093344;28;19908;-60
2022/02/27 03:20:30;;;;;;;;;;;;;;;;;;5092639;28;20275;-60
2022/02/27 03:22:57;;;;;;;;;;;;;;;;;;5093951;28;19978;-59
2022/02/27 03:25:23;;;;;;;;;;;;;;;;;;5093106;28;19912;-59
2022/02/27 03:27:50;;;;;;;;;;;;;;;;;;5093175;28;20354;-60
2022/02/27 03:30:16;;;;;;;;;;;;;;;;;;5093559;28;19996;-60
2022/02/27 03:32:46;;;;;;;;;;;;;;;;;;5093437;28;20312;-58
2022/02/27 03:35:13;;;;;;;;;;;;;;;;;;5093143;28;19909;-62
2022/02/27 03:37:39;;;;;;;;;;;;;;;;;;5093292;28;19965;-60
2022/02/27 03:40:05;;;;;;;;;;;;;;;;;;5093054;28;19963;-61
2022/02/27 03:42:32;;;;;;;;;;;;;;;;;;5093605;28;19914;-62
2022/02/27 03:44:58;;;;;;;;;;;;;;;;;;5093497;28;19911;-60
2022/02/27 03:47:25;;;;;;;;;;;;;;;;;;5092630;28;20045;-59
2022/02/27 03:49:51;;;;;;;;;;;;;;;;;;5093187;28;19911;-62
2022/02/27 03:52:18;;;;;;;;;;;;;;;;;;5093552;28;19908;-61
2022/02/27 03:54:44;;;;;;;;;;;;;;;;;;5092468;28;19905;-62
2022/02/27 03:57:11;;;;;;;;;;;;;;;;;;5091973;28;19954;-60
2022/02/27 03:59:38;;;;;;;;;;;;;;;;;;5092625;28;20249;-61
2022/02/27 04:02:04;;;;;;;;;;;;;;;;;;5093087;28;20281;-59
2022/02/27 04:04:31;;;;;;;;;;;;;;;;;;5092849;28;19984;-59
2022/02/27 04:06:57;;;;;;;;;;;;;;;;;;5092815;28;19908;-60
2022/02/27 04:09:24;;;;;;;;;;;;;;;;;;5092108;28;19916;-62
2022/02/27 04:11:50;;;;;;;;;;;;;;;;;;5092841;28;19920;-60
2022/02/27 04:14:17;;;;;;;;;;;;;;;;;;5092007;28;20360;-61
2022/02/27 04:16:43;;;;;;;;;;;;;;;;;;5093086;28;19916;-62
2022/02/27 04:19:09;;;;;;;;;;;;;;;;;;5092351;28;20431;-59
2022/02/27 04:21:36;;;;;;;;;;;;;;;;;;5092264;28;20319;-65
2022/02/27 04:24:02;;;;;;;;;;;;;;;;;;5091450;28;20024;-61
2022/02/27 04:26:29;;;;;;;;;;;;;;;;;;5091940;28;19908;-65
2022/02/27 04:28:55;;;;;;;;;;;;;;;;;;5092663;28;20069;-64
2022/02/27 04:31:22;;;;;;;;;;;;;;;;;;5093536;28;19915;-61
2022/02/27 04:33:48;;;;;;;;;;;;;;;;;;5096622;28;19939;-61
2022/02/27 04:36:15;;;;;;;;;;;;;;;;;;5096472;28;19908;-60
2022/02/27 04:38:41;;;;;;;;;;;;;;;;;;5096920;28;19922;-62
2022/02/27 04:41:08;;;;;;;;;;;;;;;;;;5096543;28;19965;-62
2022/02/27 04:43:34;;;;;;;;;;;;;;;;;;5096514;28;19908;-62
2022/02/27 04:46:02;;;;;;;;;;;;;;;;;;5096793;28;19915;-64
2022/02/27 04:48:28;;;;;;;;;;;;;;;;;;5096653;28;19940;-61
2022/02/27 04:50:55;;;;;;;;;;;;;;;;;;5097102;28;20350;-61
2022/02/27 04:53:21;;;;;;;;;;;;;;;;;;5096235;28;19915;-63
2022/02/27 04:55:47;;;;;;;;;;;;;;;;;;5095339;28;19909;-64
2022/02/27 04:58:14;;;;;;;;;;;;;;;;;;5096326;28;20374;-62
2022/02/27 05:00:40;;;;;;;;;;;;;;;;;;5096375;28;20334;-60
2022/02/27 05:03:07;;;;;;;;;;;;;;;;;;5096209;28;20265;-58
2022/02/27 05:05:33;;;;;;;;;;;;;;;;;;5096005;28;19915;-65
2022/02/27 05:08:00;;;;;;;;;;;;;;;;;;5096383;28;20315;-61
2022/02/27 05:10:26;;;;;;;;;;;;;;;;;;5096004;28;20021;-63
2022/02/27 05:12:53;;;;;;;;;;;;;;;;;;5095955;28;19908;-63
2022/02/27 05:15:19;;;;;;;;;;;;;;;;;;5094503;28;20392;-50
2022/02/27 05:17:46;;;;;;;;;;;;;;;;;;5095606;28;19958;-55
2022/02/27 05:20:13;;;;;;;;;;;;;;;;;;5095674;28;20015;-60
2022/02/27 05:22:39;;;;;;;;;;;;;;;;;;5095254;28;19916;-54
2022/02/27 05:25:06;;;;;;;;;;;;;;;;;;5092098;28;19973;-53
2022/02/27 05:27:32;;;;;;;;;;;;;;;;;;5094989;28;19908;-56
2022/02/27 05:29:59;;;;;;;;;;;;;;;;;;5095044;28;20379;-50
2022/02/27 05:32:25;;;;;;;;;;;;;;;;;;5094840;28;19990;-51
2022/02/27 05:34:52;;;;;;;;;;;;;;;;;;5094968;28;19912;-60
2022/02/27 05:37:18;;;;;;;;;;;;;;;;;;5094620;28;19999;-65
2022/02/27 05:39:44;;;;;;;;;;;;;;;;;;5095088;28;20030;-62
2022/02/27 05:42:11;;;;;;;;;;;;;;;;;;5095545;28;19961;-60
2022/02/27 05:44:39;;;;;;;;;;;;;;;;;;5094567;28;19991;-57
2022/02/27 05:47:05;;;;;;;;;;;;;;;;;;5095695;28;20317;-60
2022/02/27 05:49:32;;;;;;;;;;;;;;;;;;5094070;28;19996;-55
2022/02/27 05:51:59;;;;;;;;;;;;;;;;;;5095071;28;19962;-56
2022/02/27 05:54:25;;;;;;;;;;;;;;;;;;5095243;28;19908;-58
2022/02/27 05:56:52;;;;;;;;;;;;;;;;;;5094948;28;20006;-54
2022/02/27 05:59:20;;;;;;;;;;;;;;;;;;5094860;28;19917;-53
2022/02/27 06:01:46;;;;;;;;;;;;;;;;;;5094639;28;19935;-54
2022/02/27 06:04:13;;;;;;;;;;;;;;;;;;5094680;28;19966;-55
2022/02/27 06:06:39;;;;;;;;;;;;;;;;;;5095248;28;19916;-51
2022/02/27 06:09:06;;;;;;;;;;;;;;;;;;5094813;28;20416;-54
2022/02/27 06:11:32;;;;;;;;;;;;;;;;;;5094423;28;19908;-58
2022/02/27 06:13:59;;;;;;;;;;;;;;;;;;5093798;28;19908;-59
2022/02/27 06:16:25;;;;;;;;;;;;;;;;;;5095071;28;19908;-58
2022/02/27 06:18:52;;;;;;;;;;;;;;;;;;5094772;28;19961;-55
2022/02/27 06:21:18;;;;;;;;;;;;;;;;;;5094736;28;19908;-58
2022/02/27 06:23:45;;;;;;;;;;;;;;;;;;5093672;28;20268;-54
2022/02/27 06:26:11;;;;;;;;;;;;;;;;;;5094624;28;19931;-60
2022/02/27 06:28:37;;;;;;;;;;;;;;;;;;5094435;28;20009;-60
2022/02/27 06:31:04;;;;;;;;;;;;;;;;;;5094654;28;19908;-59
2022/02/27 06:33:30;;;;;;;;;;;;;;;;;;5094193;28;19962;-59
2022/02/27 06:35:57;;;;;;;;;;;;;;;;;;5094187;28;19908;-61
2022/02/27 06:38:23;;;;;;;;;;;;;;;;;;5094472;28;19908;-60
2022/02/27 06:40:50;;;;;;;;;;;;;;;;;;5093294;28;20365;-56
2022/02/27 06:43:16;;;;;;;;;;;;;;;;;;5094118;28;20238;-60
2022/02/27 06:45:43;;;;;;;;;;;;;;;;;;5094035;28;19932;-62
2022/02/27 06:48:09;;;;;;;;;;;;;;;;;;5094591;28;19908;-59
2022/02/27 06:50:36;;;;;;;;;;;;;;;;;;5094515;28;19995;-62
2022/02/27 06:53:02;;;;;;;;;;;;;;;;;;5094513;28;19909;-59
2022/02/27 06:55:28;;;;;;;;;;;;;;;;;;5094202;28;19909;-62
2022/02/27 06:57:55;;;;;;;;;;;;;;;;;;5094084;28;20006;-62
2022/02/27 07:00:21;;;;;;;;;;;;;;;;;;5093937;28;19923;-60
2022/02/27 07:02:48;;;;;;;;;;;;;;;;;;5094403;28;19915;-57
2022/02/27 07:05:15;;;;;;;;;;;;;;;;;;5094137;28;19908;-61
2022/02/27 07:07:41;;;;;;;;;;;;;;;;;;5094204;28;20362;-63
2022/02/27 07:10:08;;;;;;;;;;;;;;;;;;5094176;28;19908;-54
2022/02/27 07:12:34;;;;;;;;;;;;;;;;;;5093542;28;20308;-61
2022/02/27 07:15:01;;;;;;;;;;;;;;;;;;5094199;28;20277;-60
2022/02/27 07:17:27;;;;;;;;;;;;;;;;;;5093440;28;19914;-63
2022/02/27 07:19:54;;;;;;;;;;;;;;;;;;5093817;28;20003;-62
2022/02/27 07:22:20;;;;;;;;;;;;;;;;;;5093737;28;19908;-62
2022/02/27 07:24:47;;;;;;;;;;;;;;;;;;5093531;28;19912;-62
2022/02/27 07:27:13;;;;;;;;;;;;;;;;;;5094105;28;19908;-60
2022/02/27 07:29:43;;;;;;;;;;;;;;;;;;5093269;28;19912;-60
2022/02/27 07:32:14;;;;;;;;;;;;;;;;;;5093583;28;19927;-63
2022/02/27 07:34:40;;;;;;;;;;;;;;;;;;5093725;28;19908;-60
2022/02/27 07:37:07;;;;;;;;;;;;;;;;;;5093743;28;20370;-62
2022/02/27 07:39:33;;;;;;;;;;;;;;;;;;5093575;28;20015;-62
2022/02/27 07:42:00;;;;;;;;;;;;;;;;;;5093487;28;19908;-60
2022/02/27 07:44:27;;;;;;;;;;;;;;;;;;5093788;28;19915;-60
2022/02/27 07:46:54;;;;;;;;;;;;;;;;;;5093552;28;19948;-58
2022/02/27 07:49:20;;;;;;;;;;;;;;;;;;5093122;28;19904;-59
2022/02/27 07:51:47;;;;;;;;;;;;;;;;;;5093191;28;19970;-60
2022/02/27 07:54:13;;;;;;;;;;;;;;;;;;5093603;28;19994;-62
2022/02/27 07:56:40;;;;;;;;;;;;;;;;;;5093440;28;19908;-59
2022/02/27 07:59:06;;;;;;;;;;;;;;;;;;5093119;28;19923;-58
2022/02/27 08:01:33;;;;;;;;;;;;;;;;;;5092914;28;19944;-53
2022/02/27 08:04:00;;;;;;;;;;;;;;;;;;5092806;28;19918;-61
2022/02/27 08:06:26;;;;;;;;;;;;;;;;;;5092861;28;19934;-61
2022/02/27 08:08:53;;;;;;;;;;;;;;;;;;5093118;28;19908;-60
2022/02/27 08:11:19;;;;;;;;;;;;;;;;;;5092912;28;19954;-56
2022/02/27 08:13:46;;;;;;;;;;;;;;;;;;5092835;28;19963;-59
2022/02/27 08:16:12;;;;;;;;;;;;;;;;;;5092739;28;19989;-60
2022/02/27 08:18:39;;;;;;;;;;;;;;;;;;5092952;28;20385;-61
2022/02/27 08:21:05;;;;;;;;;;;;;;;;;;5093084;28;19919;-60
2022/02/27 08:23:32;;;;;;;;;;;;;;;;;;5086329;28;19931;-57
2022/02/27 08:26:00;;;;;;;;;;;;;;;;;;5090028;28;20374;-53
2022/02/27 08:28:28;;;;;;;;;;;;;;;;;;5089464;28;19994;-53
2022/02/27 08:30:55;;;;;;;;;;;;;;;;;;5088340;28;19908;-51
2022/02/27 08:33:22;;;;;;;;;;;;;;;;;;5088448;28;19912;-52
2022/02/27 08:35:48;;;;;;;;;;;;;;;;;;5089676;28;19937;-48
2022/02/27 08:38:15;;;;;;;;;;;;;;;;;;5089576;28;19950;-55
2022/02/27 08:40:41;;;;;;;;;;;;;;;;;;5089586;28;19930;-56
2022/02/27 08:43:08;;;;;;;;;;;;;;;;;;5085958;28;19908;-52
2022/02/27 08:45:34;;;;;;;;;;;;;;;;;;5089908;28;19908;-58
2022/02/27 08:48:01;;;;;;;;;;;;;;;;;;5086800;28;19959;-59
2022/02/27 08:50:27;;;;;;;;;;;;;;;;;;5087309;28;19916;-56
2022/02/27 08:52:54;;;;;;;;;;;;;;;;;;5087280;28;19961;-54
2022/02/27 08:55:22;;;;;;;;;;;;;;;;;;5085903;28;20417;-57
2022/02/27 08:57:49;;;;;;;;;;;;;;;;;;5086110;28;19974;-58
2022/02/27 09:00:15;;;;;;;;;;;;;;;;;;5087858;28;19916;-54
2022/02/27 09:02:42;;;;;;;;;;;;;;;;;;5086022;28;19908;-52
2022/02/27 09:05:08;;;;;;;;;;;;;;;;;;5085835;28;19941;-54
2022/02/27 09:07:35;;;;;;;;;;;;;;;;;;5086942;28;19947;-53
2022/02/27 09:10:02;;;;;;;;;;;;;;;;;;5089287;28;20003;-58
2022/02/27 09:12:29;;;;;;;;;;;;;;;;;;5084042;28;20003;-57
2022/02/27 09:14:56;;;;;;;;;;;;;;;;;;5085998;28;20408;-56
2022/02/27 09:17:23;;;;;;;;;;;;;;;;;;5088942;28;20004;-56
2022/02/27 09:19:49;;;;;;;;;;;;;;;;;;5092493;28;19973;-57
2022/02/27 09:22:16;;;;;;;;;;;;;;;;;;5090288;28;19931;-57
2022/02/27 09:24:42;;;;;;;;;;;;;;;;;;5092338;28;19930;-54
2022/02/27 09:27:09;;;;;;;;;;;;;;;;;;5092697;28;19908;-56
2022/02/27 09:29:35;;;;;;;;;;;;;;;;;;5093380;28;19979;-52
2022/02/27 09:32:02;;;;;;;;;;;;;;;;;;5092072;28;19912;-57
2022/02/27 09:34:28;;;;;;;;;;;;;;;;;;5091045;28;20428;-56
2022/02/27 09:36:55;;;;;;;;;;;;;;;;;;5093194;28;19912;-58
2022/02/27 09:39:21;;;;;;;;;;;;;;;;;;5092595;28;20048;-52
2022/02/27 09:41:48;;;;;;;;;;;;;;;;;;5091864;28;19908;-55
2022/02/27 09:44:14;;;;;;;;;;;;;;;;;;5089921;28;19924;-56
2022/02/27 09:46:48;;;;;;;;;;;;;;;;;;5092540;28;19912;-58
2022/02/27 09:49:14;;;;;;;;;;;;;;;;;;5091443;28;20027;-57
2022/02/27 09:51:41;;;;;;;;;;;;;;;;;;5092344;28;19916;-51
2022/02/27 09:54:09;;;;;;;;;;;;;;;;;;5089967;28;19915;-54
2022/02/27 09:56:35;;;;;;;;;;;;;;;;;;5092989;28;20001;-53
2022/02/27 09:59:02;;;;;;;;;;;;;;;;;;5090653;28;20279;-57
2022/02/27 10:01:28;;;;;;;;;;;;;;;;;;5092623;28;19908;-53
2022/02/27 10:03:56;;;;;;;;;;;;;;;;;;5089864;28;19908;-55
2022/02/27 10:06:23;;;;;;;;;;;;;;;;;;5092429;28;19922;-59
2022/02/27 10:08:49;;;;;;;;;;;;;;;;;;5092203;28;20289;-59
2022/02/27 10:11:19;;;;;;;;;;;;;;;;;;5091337;28;19916;-58
2022/02/27 10:13:45;;;;;;;;;;;;;;;;;;5088798;28;19990;-56
2022/02/27 10:16:12;;;;;;;;;;;;;;;;;;5091138;28;19908;-53
2022/02/27 10:18:38;;;;;;;;;;;;;;;;;;5091998;28;19912;-58
2022/02/27 10:21:05;;;;;;;;;;;;;;;;;;5091922;28;19919;-60
2022/02/27 10:23:32;;;;;;;;;;;;;;;;;;5088749;28;19908;-57
2022/02/27 10:25:58;;;;;;;;;;;;;;;;;;5091602;28;19961;-56
2022/02/27 10:28:24;;;;;;;;;;;;;;;;;;5091898;28;19908;-55
2022/02/27 10:30:51;;;;;;;;;;;;;;;;;;5091418;28;19916;-57
2022/02/27 10:33:17;;;;;;;;;;;;;;;;;;5088496;28;19915;-55
2022/02/27 10:35:44;;;;;;;;;;;;;;;;;;5090173;28;20492;-58
2022/02/27 10:38:10;;;;;;;;;;;;;;;;;;5091939;28;19908;-55
2022/02/27 10:40:37;;;;;;;;;;;;;;;;;;5090802;28;20374;-59
2022/02/27 10:43:04;;;;;;;;;;;;;;;;;;5087585;28;19908;-58
2022/02/27 10:45:30;;;;;;;;;;;;;;;;;;5089928;28;20408;-61
2022/02/27 10:47:56;;;;;;;;;;;;;;;;;;5091512;28;19986;-57
2022/02/27 10:50:23;;;;;;;;;;;;;;;;;;5091590;28;19908;-59
2022/02/27 10:52:52;;;;;;;;;;;;;;;;;;5087541;28;19916;-56
2022/02/27 10:55:19;;;;;;;;;;;;;;;;;;5090957;28;19959;-58
2022/02/27 10:57:45;;;;;;;;;;;;;;;;;;5091118;28;20338;-61
2022/02/27 11:00:15;;;;;;;;;;;;;;;;;;5091055;28;20634;-57
2022/02/27 11:02:41;;;;;;;;;;;;;;;;;;5088471;28;19940;-56
2022/02/27 11:05:10;;;;;;;;;;;;;;;;;;5090621;28;19914;-61
2022/02/27 11:07:36;;;;;;;;;;;;;;;;;;5091387;28;19915;-58
2022/02/27 11:10:03;;;;;;;;;;;;;;;;;;5090717;28;20278;-62
2022/02/27 11:12:29;;;;;;;;;;;;;;;;;;5087667;28;19944;-56
2022/02/27 11:14:56;;;;;;;;;;;;;;;;;;5091113;28;19912;-61
2022/02/27 11:17:22;;;;;;;;;;;;;;;;;;5091274;28;19908;-59
2022/02/27 11:19:49;;;;;;;;;;;;;;;;;;5090978;28;19924;-57
2022/02/27 11:22:15;;;;;;;;;;;;;;;;;;5088537;28;19951;-61
2022/02/27 11:24:43;;;;;;;;;;;;;;;;;;5090342;28;19943;-62
2022/02/27 11:27:09;;;;;;;;;;;;;;;;;;5090073;28;19958;-62
2022/02/27 11:29:36;;;;;;;;;;;;;;;;;;5090700;28;20007;-58
2022/02/27 11:32:02;;;;;;;;;;;;;;;;;;5088447;28;19961;-62
2022/02/27 11:34:29;;;;;;;;;;;;;;;;;;5089293;28;19908;-61
2022/02/27 11:36:55;;;;;;;;;;;;;;;;;;5090177;28;19980;-61
2022/02/27 11:42:06;;;;;;;;;;;;;;;;;;5088017;28;19953;-54
2022/02/27 11:44:33;;;;;;;;;;;;;;;;;;5089147;28;19912;-55
2022/02/27 11:46:59;;;;;;;;;;;;;;;;;;5090576;28;19912;-54
2022/02/27 11:49:26;;;;;;;;;;;;;;;;;;5090731;28;20353;-60
2022/02/27 11:51:52;;;;;;;;;;;;;;;;;;5089697;28;19908;-59
2022/02/27 11:54:19;;;;;;;;;;;;;;;;;;5088227;28;19920;-55
2022/02/27 11:56:45;;;;;;;;;;;;;;;;;;5090559;28;20003;-61
2022/02/27 11:59:12;;;;;;;;;;;;;;;;;;5090053;28;19924;-61
2022/02/27 12:01:42;;;;;;;;;;;;;;;;;;5088208;28;20279;-59
2022/02/27 12:04:08;;;;;;;;;;;;;;;;;;5087995;28;19908;-61
2022/02/27 12:06:35;;;;;;;;;;;;;;;;;;5090651;28;19918;-59
2022/02/27 12:09:01;;;;;;;;;;;;;;;;;;5089732;28;19923;-56
2022/02/27 12:11:29;;;;;;;;;;;;;;;;;;5089983;28;19908;-57
2022/02/27 12:13:56;;;;;;;;;;;;;;;;;;5087658;28;20334;-57
2022/02/27 12:16:22;;;;;;;;;;;;;;;;;;5089816;28;20270;-49
2022/02/27 12:18:49;;;;;;;;;;;;;;;;;;5090408;28;20315;-56
2022/02/27 12:21:15;;;;;;;;;;;;;;;;;;5089992;28;19912;-58
2022/02/27 12:23:44;;;;;;;;;;;;;;;;;;5087759;28;20285;-62
2022/02/27 12:26:11;;;;;;;;;;;;;;;;;;5090110;28;20278;-60
2022/02/27 12:28:37;;;;;;;;;;;;;;;;;;5089303;28;19908;-57
2022/02/27 12:31:04;;;;;;;;;;;;;;;;;;5090471;28;19916;-64
2022/02/27 12:33:30;;;;;;;;;;;;;;;;;;5087537;28;19944;-59
2022/02/27 12:36:00;;;;;;;;;;;;;;;;;;5090738;28;19908;-57
2022/02/27 12:38:27;;;;;;;;;;;;;;;;;;5088485;28;19912;-59
2022/02/27 12:40:53;;;;;;;;;;;;;;;;;;5090956;28;19916;-56
2022/02/27 12:43:20;;;;;;;;;;;;;;;;;;5090073;28;20294;-59
2022/02/27 12:45:46;;;;;;;;;;;;;;;;;;5089902;28;20232;-60
2022/02/27 12:48:13;;;;;;;;;;;;;;;;;;5090035;28;20440;-57
2022/02/27 12:50:39;;;;;;;;;;;;;;;;;;5090075;28;19908;-59
2022/02/27 12:53:06;;;;;;;;;;;;;;;;;;5091399;28;19962;-56
2022/02/27 12:55:32;;;;;;;;;;;;;;;;;;5093510;28;19915;-56
2022/02/27 12:58:02;;;;;;;;;;;;;;;;;;5096622;28;20423;-58
2022/02/27 13:00:29;;;;;;;;;;;;;;;;;;5096214;28;19916;-57
2022/02/27 13:02:55;;;;;;;;;;;;;;;;;;5097042;28;20331;-61
2022/02/27 13:05:22;;;;;;;;;;;;;;;;;;5096788;28;20408;-56
2022/02/27 13:07:48;;;;;;;;;;;;;;;;;;5096856;28;20377;-58
2022/02/27 13:10:15;;;;;;;;;;;;;;;;;;5096891;28;20266;-58
2022/02/27 13:12:41;;;;;;;;;;;;;;;;;;5096737;28;19908;-58
2022/02/27 13:15:08;;;;;;;;;;;;;;;;;;5096484;28;19904;-58
2022/02/27 13:17:34;;;;;;;;;;;;;;;;;;5090539;28;19965;-59
2022/02/27 13:20:01;;;;;;;;;;;;;;;;;;5093737;28;19935;-57
2022/02/27 13:22:27;;;;;;;;;;;;;;;;;;5095573;28;20090;-57
2022/02/27 13:24:57;;;;;;;;;;;;;;;;;;5093310;28;19909;-57
2022/02/27 13:27:23;;;;;;;;;;;;;;;;;;5092603;28;19908;-59
2022/02/27 13:29:50;;;;;;;;;;;;;;;;;;5092690;28;19908;-58
2022/02/27 13:32:16;;;;;;;;;;;;;;;;;;5093660;28;19908;-60
2022/02/27 13:34:43;;;;;;;;;;;;;;;;;;5093318;28;19908;-57
2022/02/27 13:37:09;;;;;;;;;;;;;;;;;;5091531;28;19908;-58
2022/02/27 13:39:36;;;;;;;;;;;;;;;;;;5092918;28;19970;-59
2022/02/27 13:42:02;;;;;;;;;;;;;;;;;;5093274;28;20384;-55
2022/02/27 13:44:29;;;;;;;;;;;;;;;;;;5092628;28;19998;-58
2022/02/27 13:46:55;;;;;;;;;;;;;;;;;;5090788;28;19961;-60
2022/02/27 13:49:22;;;;;;;;;;;;;;;;;;5092368;28;19923;-61
2022/02/27 13:51:48;;;;;;;;;;;;;;;;;;5092864;28;20019;-56
2022/02/27 13:54:16;;;;;;;;;;;;;;;;;;5092368;28;19915;-59
2022/02/27 13:56:42;;;;;;;;;;;;;;;;;;5089180;28;19908;-59
2022/02/27 13:59:09;;;;;;;;;;;;;;;;;;5092524;28;19973;-59
2022/02/27 14:01:35;;;;;;;;;;;;;;;;;;5093251;28;19951;-58
2022/02/27 14:04:01;;;;;;;;;;;;;;;;;;5091693;28;20438;-57
2022/02/27 14:06:28;;;;;;;;;;;;;;;;;;5088730;28;19908;-59
2022/02/27 14:08:54;;;;;;;;;;;;;;;;;;5092822;28;19908;-57
2022/02/27 14:11:21;;;;;;;;;;;;;;;;;;5092338;28;19915;-57
2022/02/27 14:13:48;;;;;;;;;;;;;;;;;;5091911;28;19908;-55
2022/02/27 14:16:20;;;;;;;;;;;;;;;;;;5090585;28;19955;-59
2022/02/27 14:18:47;;;;;;;;;;;;;;;;;;5092504;28;19912;-60
2022/02/27 14:23:58;;;;;;;;;;;;;;;;;;5091107;28;19915;-57
2022/02/27 14:26:24;;;;;;;;;;;;;;;;;;5089006;28;19908;-56
2022/02/27 14:28:51;;;;;;;;;;;;;;;;;;5091934;28;20307;-57
2022/02/27 14:31:17;;;;;;;;;;;;;;;;;;5091698;28;19916;-57
2022/02/27 14:33:44;;;;;;;;;;;;;;;;;;5090934;28;19908;-56
2022/02/27 14:36:11;;;;;;;;;;;;;;;;;;5088071;28;19912;-57
2022/02/27 14:38:37;;;;;;;;;;;;;;;;;;5091045;28;19985;-56
2022/02/27 14:41:04;;;;;;;;;;;;;;;;;;5091292;28;19924;-53
2022/02/27 14:43:30;;;;;;;;;;;;;;;;;;5091673;28;20362;-58
2022/02/27 14:45:57;;;;;;;;;;;;;;;;;;5088462;28;19915;-57
2022/02/27 14:48:23;;;;;;;;;;;;;;;;;;5091692;28;19962;-58
2022/02/27 14:50:50;;;;;;;;;;;;;;;;;;5091750;28;19958;-58
2022/02/27 14:53:16;;;;;;;;;;;;;;;;;;5091248;28;19947;-58
2022/02/27 14:55:43;;;;;;;;;;;;;;;;;;5087404;28;19917;-58
2022/02/27 14:58:09;;;;;;;;;;;;;;;;;;5091577;28;19975;-57
2022/02/27 15:00:36;;;;;;;;;;;;;;;;;;5091452;28;20267;-55
2022/02/27 15:03:02;;;;;;;;;;;;;;;;;;5089972;28;19908;-56
2022/02/27 15:05:29;;;;;;;;;;;;;;;;;;5088119;28;19908;-56
2022/02/27 15:07:55;;;;;;;;;;;;;;;;;;5090330;28;19915;-56
2022/02/27 15:10:22;;;;;;;;;;;;;;;;;;5091279;28;19908;-57
2022/02/27 15:12:48;;;;;;;;;;;;;;;;;;5092561;28;19936;-56
2022/02/27 15:15:16;;;;;;;;;;;;;;;;;;5090217;28;20479;-56
2022/02/27 15:17:42;;;;;;;;;;;;;;;;;;5088754;28;19908;-57
2022/02/27 15:20:08;;;;;;;;;;;;;;;;;;5093381;28;19916;-56
2022/02/27 15:22:35;;;;;;;;;;;;;;;;;;5094298;28;19912;-57
2022/02/27 15:25:01;;;;;;;;;;;;;;;;;;5094047;28;20008;-55
2022/02/27 15:27:28;;;;;;;;;;;;;;;;;;5094359;28;19908;-56
2022/02/27 15:29:54;;;;;;;;;;;;;;;;;;5094276;28;19904;-57
2022/02/27 15:32:21;;;;;;;;;;;;;;;;;;5094004;28;19915;-54
2022/02/27 15:34:47;;;;;;;;;;;;;;;;;;5093779;28;19999;-56
2022/02/27 15:37:14;;;;;;;;;;;;;;;;;;5093612;28;19961;-57
2022/02/27 15:39:40;;;;;;;;;;;;;;;;;;5093690;28;19920;-57
2022/02/27 15:42:07;;;;;;;;;;;;;;;;;;5093701;28;19915;-57
2022/02/27 15:44:33;;;;;;;;;;;;;;;;;;5093529;28;19915;-56
2022/02/27 15:47:00;;;;;;;;;;;;;;;;;;5092808;28;19919;-57
2022/02/27 15:49:26;;;;;;;;;;;;;;;;;;5093844;28;19908;-56
2022/02/27 15:51:53;;;;;;;;;;;;;;;;;;5093699;28;19959;-55
2022/02/27 15:54:19;;;;;;;;;;;;;;;;;;5093542;28;19970;-56
2022/02/27 15:56:49;;;;;;;;;;;;;;;;;;5093611;28;20049;-55
2022/02/27 15:59:15;;;;;;;;;;;;;;;;;;5093442;28;20011;-57
2022/02/27 16:01:42;;;;;;;;;;;;;;;;;;5093611;28;20354;-55
2022/02/27 16:04:08;;;;;;;;;;;;;;;;;;5093589;28;19908;-56
2022/02/27 16:06:34;;;;;;;;;;;;;;;;;;5093452;28;19960;-56
2022/02/27 16:09:01;;;;;;;;;;;;;;;;;;5093087;28;19908;-57
2022/02/27 16:11:27;;;;;;;;;;;;;;;;;;5093332;28;19909;-58
2022/02/27 16:13:54;;;;;;;;;;;;;;;;;;5093480;28;19912;-56
2022/02/27 16:16:20;;;;;;;;;;;;;;;;;;5093320;28;19912;-56
2022/02/27 16:18:47;;;;;;;;;;;;;;;;;;5093605;28;19908;-57
2022/02/27 16:21:13;;;;;;;;;;;;;;;;;;5093200;28;20363;-54
2022/02/27 16:23:40;;;;;;;;;;;;;;;;;;5093128;28;20290;-58
2022/02/27 16:26:06;;;;;;;;;;;;;;;;;;5093322;28;19977;-58
2022/02/27 16:28:33;;;;;;;;;;;;;;;;;;5096576;28;19916;-57
2022/02/27 16:30:59;;;;;;;;;;;;;;;;;;5097371;28;19946;-56
2022/02/27 16:33:26;;;;;;;;;;;;;;;;;;5097346;28;20054;-57
2022/02/27 16:35:52;;;;;;;;;;;;;;;;;;5097311;28;19931;-57
2022/02/27 16:38:19;;;;;;;;;;;;;;;;;;5097274;28;19962;-57
2022/02/27 16:40:45;;;;;;;;;;;;;;;;;;5097290;28;20008;-57
2022/02/27 16:43:11;;;;;;;;;;;;;;;;;;5097017;28;19915;-57
2022/02/27 16:45:38;;;;;;;;;;;;;;;;;;5097465;28;19943;-56